Time;durP1;ratioP1;P1;durP2;ratioP2;P2;SDS_P1;SDS_P2;PMS_P1;PMS_P2;Temp;Humidity;BMP_temperature;BMP_pressure;BME280_temperature;BME280_humidity;BME280_pressure;Samples;Min_cycle;Max_cycle;Signal;HPM_P1;HPM_P2
2023/06/19 00:02:20;;;;;;;7.67;7.07;;;25.40;57.00;;;;;;10403619;28;20217;-84
2023/06/19 00:07:25;;;;;;;7.53;6.93;;;25.40;57.60;;;;;;10404690;28;20226;-84
2023/06/19 00:12:36;;;;;;;7.50;7.00;;;25.40;57.70;;;;;;10402157;28;20309;-83
2023/06/19 00:17:38;;;;;;;8.20;7.47;;;25.40;57.80;;;;;;10384863;28;20260;-83
2023/06/19 00:22:42;;;;;;;7.20;6.70;;;25.30;57.60;;;;;;10418837;28;20278;-83
2023/06/19 00:27:44;;;;;;;7.10;6.40;;;25.40;57.40;;;;;;10401359;28;20269;-83
2023/06/19 00:32:49;;;;;;;7.03;6.57;;;25.40;57.70;;;;;;10398861;28;20265;-84
2023/06/19 00:37:54;;;;;;;6.63;6.20;;;25.40;58.00;;;;;;10416419;28;20293;-84
2023/06/19 00:42:56;;;;;;;6.87;6.37;;;25.40;57.50;;;;;;10404913;28;20281;-83
2023/06/19 00:48:00;;;;;;;9.73;7.00;;;25.40;57.00;;;;;;10432621;28;20219;-84
2023/06/19 00:53:04;;;;;;;7.87;6.80;;;25.40;57.60;;;;;;10415568;28;20225;-85
2023/06/19 00:58:07;;;;;;;8.17;6.57;;;25.40;58.10;;;;;;10397807;28;20215;-83
2023/06/19 01:03:09;;;;;;;6.63;6.13;;;25.30;58.20;;;;;;10394092;28;20195;-84
2023/06/19 01:08:22;;;;;;;6.50;6.00;;;25.30;58.10;;;;;;10416378;28;20284;-84
2023/06/19 01:13:42;;;;;;;7.33;6.63;;;25.30;57.80;;;;;;10411936;28;20219;-84
2023/06/19 01:18:45;;;;;;;7.30;6.70;;;25.30;57.20;;;;;;10383903;28;20222;-84
2023/06/19 01:23:51;;;;;;;7.70;7.20;;;25.30;57.70;;;;;;10396699;28;20362;-83
2023/06/19 01:28:54;;;;;;;7.50;6.90;;;25.30;58.10;;;;;;10397022;28;20233;-84
2023/06/19 01:33:57;;;;;;;7.60;6.90;;;25.30;58.40;;;;;;10414536;28;20226;-84
2023/06/19 01:39:01;;;;;;;6.50;6.00;;;25.20;58.30;;;;;;10398727;28;20218;-85
2023/06/19 01:44:04;;;;;;;7.40;6.80;;;25.20;58.40;;;;;;10413773;28;20187;-85
2023/06/19 01:49:08;;;;;;;6.23;5.73;;;25.10;58.60;;;;;;10422596;28;20281;-85
2023/06/19 01:54:12;;;;;;;6.60;6.10;;;25.00;59.00;;;;;;10396034;28;20214;-84
2023/06/19 01:59:14;;;;;;;6.33;5.93;;;24.90;59.30;;;;;;10396182;28;20308;-84
2023/06/19 02:04:16;;;;;;;9.27;6.77;;;24.80;59.80;;;;;;10413747;28;20221;-84
2023/06/19 02:09:19;;;;;;;6.57;6.17;;;24.80;60.20;;;;;;10395182;28;20238;-84
2023/06/19 02:14:23;;;;;;;6.30;5.90;;;24.70;60.80;;;;;;10395874;28;20214;-84
2023/06/19 02:19:25;;;;;;;6.40;6.00;;;24.70;61.40;;;;;;10396812;28;20317;-84
2023/06/19 02:24:28;;;;;;;6.50;6.10;;;24.60;61.80;;;;;;10397238;28;20190;-84
2023/06/19 02:29:30;;;;;;;6.90;6.30;;;24.60;62.50;;;;;;10414372;28;20293;-85
2023/06/19 02:34:33;;;;;;;6.30;5.90;;;24.50;62.60;;;;;;10419987;28;20245;-84
2023/06/19 02:39:36;;;;;;;6.73;5.83;;;24.50;63.10;;;;;;10414285;28;20257;-83
2023/06/19 02:44:38;;;;;;;5.23;4.93;;;24.40;64.00;;;;;;10393983;28;20190;-84
2023/06/19 02:49:40;;;;;;;6.07;5.00;;;24.40;64.20;;;;;;10412757;28;20230;-85
2023/06/19 02:54:44;;;;;;;6.97;6.30;;;24.40;64.50;;;;;;10395032;28;20596;-85
2023/06/19 02:59:46;;;;;;;6.27;5.73;;;24.40;64.50;;;;;;10395422;28;20245;-84
2023/06/19 03:04:50;;;;;;;5.57;5.27;;;24.40;64.70;;;;;;10395772;28;20285;-84
2023/06/19 03:09:54;;;;;;;5.47;5.00;;;24.40;65.10;;;;;;10397844;28;20210;-84
2023/06/19 03:14:57;;;;;;;4.80;4.50;;;24.40;64.90;;;;;;10421544;28;20225;-84
2023/06/19 03:20:02;;;;;;;4.93;4.53;;;24.40;64.80;;;;;;10408758;28;20215;-84
2023/06/19 03:25:07;;;;;;;5.07;4.77;;;24.40;65.10;;;;;;10404027;28;20639;-84
2023/06/19 03:30:12;;;;;;;5.40;5.10;;;24.40;65.80;;;;;;10395638;28;20717;-84
2023/06/19 03:35:17;;;;;;;3.77;3.57;;;24.40;67.50;;;;;;10411446;28;20246;-84
2023/06/19 03:40:21;;;;;;;5.07;4.77;;;24.30;66.80;;;;;;10394805;28;20260;-85
2023/06/19 03:45:25;;;;;;;4.60;4.20;;;24.30;66.00;;;;;;10412168;28;20282;-84
2023/06/19 03:50:27;;;;;;;5.83;4.60;;;24.20;68.40;;;;;;10412293;28;20234;-84
2023/06/19 03:55:31;;;;;;;4.87;4.57;;;24.20;71.30;;;;;;10395509;28;20226;-84
2023/06/19 04:00:51;;;;;;;4.40;4.10;;;24.00;72.50;;;;;;10403345;28;20277;-82
2023/06/19 04:06:19;;;;;;;4.27;3.97;;;23.90;72.30;;;;;;10396809;28;20199;-85
2023/06/19 04:11:30;;;;;;;4.60;4.20;;;23.80;71.60;;;;;;10400192;28;20222;-85
2023/06/19 04:16:49;;;;;;;4.90;4.60;;;23.80;71.40;;;;;;10403983;28;20197;-84
2023/06/19 04:21:54;;;;;;;4.30;4.00;;;23.80;72.40;;;;;;10401596;28;20564;-84
2023/06/19 04:27:21;;;;;;;4.20;4.00;;;23.80;72.80;;;;;;10380692;28;20238;-84
2023/06/19 04:32:43;;;;;;;4.50;4.20;;;23.90;73.80;;;;;;10402633;28;20272;-85
2023/06/19 04:37:48;;;;;;;4.40;4.10;;;23.90;73.60;;;;;;10424368;28;20227;-82
2023/06/19 04:42:53;;;;;;;4.13;3.83;;;23.90;72.90;;;;;;10430195;28;20194;-84
2023/06/19 04:47:55;;;;;;;4.10;3.90;;;23.90;72.10;;;;;;10413901;28;20260;-85
2023/06/19 04:52:57;;;;;;;4.33;3.93;;;23.90;72.00;;;;;;10428443;28;20219;-85
2023/06/19 04:58:01;;;;;;;3.57;3.37;;;24.00;71.50;;;;;;10423689;28;20214;-84
2023/06/19 05:03:03;;;;;;;3.83;3.63;;;24.10;71.90;;;;;;10429658;28;20652;-84
2023/06/19 05:08:06;;;;;;;4.53;4.23;;;24.20;72.20;;;;;;10427719;28;20539;-84
2023/06/19 05:13:09;;;;;;;3.60;3.30;;;24.30;72.40;;;;;;10423652;28;20211;-84
2023/06/19 05:18:12;;;;;;;5.00;4.07;;;24.40;71.50;;;;;;10432375;28;20237;-85
2023/06/19 05:23:15;;;;;;;3.50;3.30;;;24.50;71.60;;;;;;10417188;28;20387;-85
2023/06/19 05:29:08;;;;;;;3.30;3.10;;;24.60;71.30;;;;;;10419438;28;20215;-84
2023/06/19 05:34:10;;;;;;;4.27;3.97;;;24.60;73.20;;;;;;10396095;28;20245;-84
2023/06/19 05:39:12;;;;;;;3.63;3.33;;;24.60;71.50;;;;;;10413571;28;20218;-84
2023/06/19 05:44:16;;;;;;;4.40;4.10;;;24.60;71.30;;;;;;10450475;28;20191;-84
2023/06/19 05:49:18;;;;;;;4.13;3.50;;;24.60;71.70;;;;;;10416427;28;20305;-83
2023/06/19 05:54:20;;;;;;;3.60;3.10;;;24.70;71.70;;;;;;10438161;28;20733;-84
2023/06/19 05:59:24;;;;;;;7.60;3.53;;;24.80;71.60;;;;;;10420808;28;20222;-84
2023/06/19 06:10:03;;;;;;;4.03;3.70;;;25.20;71.40;;;;;;10339074;28;20246;-80
2023/06/19 06:15:07;;;;;;;3.97;3.77;;;25.30;70.60;;;;;;10344576;28;20255;-80
2023/06/19 06:20:11;;;;;;;4.07;3.77;;;25.40;71.00;;;;;;10344210;28;20199;-80
2023/06/19 06:25:14;;;;;;;3.93;3.73;;;25.40;70.50;;;;;;10344571;28;20300;-80
2023/06/19 06:30:17;;;;;;;3.70;3.50;;;25.50;70.80;;;;;;10304801;28;20737;-81
2023/06/19 06:35:19;;;;;;;4.03;3.70;;;25.60;70.30;;;;;;10337480;28;20751;-79
2023/06/19 06:40:21;;;;;;;4.00;3.70;;;25.80;69.70;;;;;;10347801;28;20203;-80
2023/06/19 06:45:25;;;;;;;7.33;3.40;;;26.00;69.50;;;;;;10338893;28;20219;-79
2023/06/19 06:50:27;;;;;;;3.43;3.23;;;26.20;68.10;;;;;;10335844;28;20556;-79
2023/06/19 06:55:29;;;;;;;2.90;2.70;;;26.50;67.50;;;;;;10346055;28;20469;-80
2023/06/19 07:00:33;;;;;;;3.67;3.37;;;26.80;66.60;;;;;;10335057;28;20223;-81
2023/06/19 07:05:35;;;;;;;4.10;2.10;;;27.00;65.90;;;;;;10320674;28;20262;-81
2023/06/19 07:10:37;;;;;;;3.23;3.03;;;27.10;65.50;;;;;;10339429;28;20204;-79
2023/06/19 07:15:41;;;;;;;2.73;2.63;;;27.10;64.60;;;;;;10336863;28;20220;-79
2023/06/19 07:20:43;;;;;;;2.70;2.57;;;26.90;63.80;;;;;;10336666;28;20210;-80
2023/06/19 07:25:47;;;;;;;2.70;2.60;;;26.90;64.70;;;;;;10339975;28;20749;-78
2023/06/19 07:30:52;;;;;;;2.90;2.80;;;26.90;64.40;;;;;;10328641;28;20282;-80
2023/06/19 07:35:54;;;;;;;3.07;2.87;;;27.20;64.30;;;;;;10343658;28;20691;-80
2023/06/19 07:40:56;;;;;;;3.10;2.90;;;27.80;63.40;;;;;;10347026;28;20208;-80
2023/06/19 07:46:00;;;;;;;2.70;2.53;;;28.70;61.60;;;;;;10329160;28;20215;-81
2023/06/19 07:51:02;;;;;;;3.43;2.97;;;29.20;59.50;;;;;;10345945;28;20240;-80
2023/06/19 07:56:04;;;;;;;3.30;3.10;;;29.70;59.00;;;;;;10345326;28;20281;-80
2023/06/19 08:01:07;;;;;;;3.23;3.03;;;29.90;58.40;;;;;;10354130;28;20200;-80
2023/06/19 08:06:10;;;;;;;2.80;2.70;;;29.80;57.90;;;;;;10345130;28;20220;-80
2023/06/19 08:11:12;;;;;;;2.83;2.73;;;30.30;58.70;;;;;;10345516;28;20291;-81
2023/06/19 08:16:17;;;;;;;2.60;2.50;;;30.60;57.80;;;;;;10351166;28;20695;-81
2023/06/19 08:21:20;;;;;;;3.37;3.17;;;30.60;57.20;;;;;;10346575;28;20655;-81
2023/06/19 08:26:23;;;;;;;2.83;2.60;;;30.40;57.00;;;;;;10344422;28;20292;-81
2023/06/19 08:31:28;;;;;;;3.60;3.07;;;30.10;56.80;;;;;;10343372;28;20619;-81
2023/06/19 08:36:30;;;;;;;3.40;3.20;;;29.80;58.00;;;;;;10327181;28;20227;-80
2023/06/19 08:41:32;;;;;;;2.60;2.40;;;29.50;57.80;;;;;;10342889;28;20243;-79
2023/06/19 08:46:37;;;;;;;3.23;3.03;;;29.30;59.30;;;;;;10341760;28;20242;-80
2023/06/19 08:51:40;;;;;;;3.33;3.03;;;29.40;59.30;;;;;;10340036;28;20199;-81
2023/06/19 08:56:42;;;;;;;3.40;3.10;;;29.90;58.70;;;;;;10305995;28;20224;-79
2023/06/19 09:01:51;;;;;;;3.50;3.30;;;30.40;57.70;;;;;;10344243;28;20196;-79
2023/06/19 09:06:55;;;;;;;4.60;3.40;;;30.90;56.70;;;;;;10344202;28;20234;-81
2023/06/19 09:12:03;;;;;;;3.43;2.97;;;31.50;55.90;;;;;;10336655;28;20200;-81
2023/06/19 09:17:12;;;;;;;2.63;2.50;;;32.20;55.60;;;;;;10344391;28;20648;-80
2023/06/19 09:22:14;;;;;;;2.63;2.43;;;32.90;53.50;;;;;;10338682;28;20273;-82
2023/06/19 09:27:19;;;;;;;2.23;2.13;;;33.50;53.40;;;;;;10319975;28;20664;-79
2023/06/19 09:32:24;;;;;;;2.90;2.70;;;34.00;52.10;;;;;;10338081;28;20213;-81
2023/06/19 09:37:29;;;;;;;2.40;2.20;;;34.60;51.30;;;;;;10335780;28;20285;-82
2023/06/19 09:42:33;;;;;;;2.47;2.30;;;35.50;49.20;;;;;;10338690;28;20249;-83
2023/06/19 09:47:43;;;;;;;3.00;2.80;;;36.30;48.80;;;;;;10322548;28;20243;-83
2023/06/19 09:52:46;;;;;;;2.80;2.60;;;36.10;48.40;;;;;;10338024;28;20222;-82
2023/06/19 09:57:49;;;;;;;3.67;3.40;;;35.40;48.90;;;;;;10335866;28;20223;-82
2023/06/19 10:02:53;;;;;;;2.63;2.53;;;35.50;50.60;;;;;;10320031;28;20191;-83
2023/06/19 10:07:59;;;;;;;3.50;3.30;;;36.20;49.40;;;;;;10335971;28;20317;-82
2023/06/19 10:13:13;;;;;;;3.30;3.10;;;36.50;48.80;;;;;;10334552;28;20701;-81
2023/06/19 10:18:17;;;;;;;3.60;3.30;;;36.80;49.20;;;;;;10307494;28;20243;-83
2023/06/19 10:23:22;;;;;;;3.00;2.80;;;38.20;48.20;;;;;;10338755;28;20199;-83
2023/06/19 10:28:26;;;;;;;2.83;2.72;;;38.10;46.60;;;;;;10337430;28;20265;-82
2023/06/19 10:33:32;;;;;;;2.90;2.70;;;36.90;47.80;;;;;;10337302;28;20230;-79
2023/06/19 10:38:34;;;;;;;3.53;3.33;;;35.80;48.70;;;;;;10332370;28;20302;-81
2023/06/19 10:43:36;;;;;;;3.90;3.70;;;34.80;50.30;;;;;;10334725;28;20203;-82
2023/06/19 10:48:39;;;;;;;3.70;3.50;;;34.20;51.50;;;;;;10319594;28;20310;-80
2023/06/19 10:53:41;;;;;;;4.70;3.77;;;33.60;52.50;;;;;;10318146;28;20243;-80
2023/06/19 10:58:44;;;;;;;3.90;3.60;;;33.00;53.40;;;;;;10320102;28;20299;-80
2023/06/19 11:03:48;;;;;;;4.20;3.73;;;32.30;54.40;;;;;;10337539;28;20247;-80
2023/06/19 11:08:52;;;;;;;3.87;3.63;;;31.80;55.30;;;;;;10330172;28;20242;-80
2023/06/19 11:13:55;;;;;;;4.07;3.63;;;31.50;56.50;;;;;;10333251;28;20237;-80
2023/06/19 11:18:59;;;;;;;4.10;3.70;;;31.40;56.20;;;;;;10333048;28;20220;-80
2023/06/19 11:24:01;;;;;;;4.57;4.17;;;31.40;56.60;;;;;;10330644;28;20200;-79
2023/06/19 11:29:14;;;;;;;3.87;3.53;;;31.20;57.00;;;;;;10331194;28;20215;-81
2023/06/19 11:34:18;;;;;;;6.60;4.10;;;31.00;57.30;;;;;;10333188;28;20212;-80
2023/06/19 11:39:22;;;;;;;3.73;3.43;;;30.70;57.60;;;;;;10320802;28;20224;-80
2023/06/19 11:44:24;;;;;;;3.43;3.23;;;30.60;58.40;;;;;;10303503;28;20192;-82
2023/06/19 11:49:32;;;;;;;4.23;3.97;;;30.50;58.20;;;;;;10336198;28;20219;-80
2023/06/19 11:54:34;;;;;;;4.20;3.90;;;30.50;58.60;;;;;;10331831;28;20224;-80
2023/06/19 11:59:36;;;;;;;4.03;3.70;;;30.50;58.10;;;;;;10335927;28;20227;-81
2023/06/19 12:04:40;;;;;;;3.93;3.63;;;30.30;57.90;;;;;;10334352;28;20243;-79
2023/06/19 12:09:43;;;;;;;4.80;4.50;;;30.30;58.60;;;;;;10333013;28;20204;-82
2023/06/19 12:14:47;;;;;;;3.90;3.60;;;30.20;58.60;;;;;;10379407;22;20307;-83
2023/06/19 12:19:51;;;;;;;3.97;3.77;;;30.20;58.20;;;;;;10420684;28;20206;-85
2023/06/19 12:24:54;;;;;;;3.90;3.70;;;30.20;58.30;;;;;;10398498;28;20260;-84
2023/06/19 12:29:58;;;;;;;4.47;4.07;;;30.20;58.50;;;;;;10382342;28;20198;-85
2023/06/19 12:35:12;;;;;;;4.50;4.10;;;30.30;58.80;;;;;;10397661;28;20233;-85
2023/06/19 12:40:21;;;;;;;4.93;4.50;;;30.40;58.60;;;;;;10397439;28;20273;-84
2023/06/19 12:51:19;;;;;;;4.53;4.13;;;30.60;57.50;;;;;;10405458;28;20194;-85
2023/06/19 12:56:35;;;;;;;4.00;3.80;;;30.60;57.90;;;;;;10420022;28;20301;-84
2023/06/19 13:01:46;;;;;;;4.20;3.90;;;30.60;58.00;;;;;;10381216;28;20348;-86
2023/06/19 13:06:52;;;;;;;3.90;3.60;;;30.50;57.90;;;;;;10381265;28;20222;-85
2023/06/19 13:11:55;;;;;;;4.03;3.83;;;30.30;57.90;;;;;;10414888;28;20198;-84
2023/06/19 13:16:57;;;;;;;4.07;3.87;;;30.30;58.30;;;;;;10406486;28;20574;-85
2023/06/19 13:22:01;;;;;;;4.23;3.93;;;30.20;58.50;;;;;;10421239;28;20221;-84
2023/06/19 13:27:04;;;;;;;4.43;4.03;;;30.10;58.70;;;;;;10434972;28;20788;-86
2023/06/19 13:32:07;;;;;;;4.47;3.90;;;30.00;58.30;;;;;;10414381;28;20191;-83
2023/06/19 13:37:10;;;;;;;4.00;3.80;;;30.00;58.20;;;;;;10419136;28;20222;-85
2023/06/19 13:42:13;;;;;;;4.43;4.07;;;29.80;58.30;;;;;;10413631;28;20245;-84
2023/06/19 13:47:15;;;;;;;3.80;3.60;;;29.70;59.10;;;;;;10396877;28;20226;-85
2023/06/19 13:52:18;;;;;;;4.40;4.10;;;29.60;59.00;;;;;;10415849;28;20202;-84
2023/06/19 13:57:20;;;;;;;4.80;3.83;;;29.60;58.80;;;;;;10417451;28;20281;-86
2023/06/19 14:02:43;;;;;;;4.33;4.03;;;29.50;59.20;;;;;;10420110;28;20747;-86
2023/06/19 14:07:55;;;;;;;3.87;3.67;;;29.60;59.10;;;;;;10431083;28;20214;-84
2023/06/19 14:13:01;;;;;;;3.80;3.60;;;29.70;58.70;;;;;;10422633;28;20218;-85
2023/06/19 14:18:10;;;;;;;3.87;3.67;;;29.70;58.70;;;;;;10395186;28;20226;-86
2023/06/19 14:23:19;;;;;;;4.33;4.03;;;29.60;58.50;;;;;;10392949;28;20190;-86
2023/06/19 14:28:27;;;;;;;3.87;3.60;;;29.50;58.80;;;;;;10409747;28;20288;-86
2023/06/19 14:33:46;;;;;;;4.00;3.40;;;29.50;59.00;;;;;;10409861;28;20273;-84
2023/06/19 14:39:29;;;;;;;4.40;4.10;;;29.60;58.60;;;;;;10406541;28;20246;-84
2023/06/19 14:44:56;;;;;;;3.90;3.70;;;29.60;58.80;;;;;;10408256;28;20650;-84
2023/06/19 14:50:25;;;;;;;4.17;3.93;;;29.60;58.60;;;;;;10389971;28;20681;-84
2023/06/19 14:56:04;;;;;;;4.47;4.07;;;29.60;58.00;;;;;;10406042;28;20305;-85
2023/06/19 15:01:45;;;;;;;4.13;3.80;;;29.70;58.00;;;;;;10409414;28;20568;-84
2023/06/19 15:07:01;;;;;;;4.43;4.17;;;29.60;59.50;;;;;;10409811;28;20651;-84
2023/06/19 15:12:34;;;;;;;4.00;3.70;;;29.60;58.60;;;;;;10418638;28;20277;-85
2023/06/19 15:17:51;;;;;;;3.77;3.57;;;29.60;59.70;;;;;;10507963;23;20258;-85
2023/06/19 15:23:02;;;;;;;4.13;3.83;;;29.70;58.90;;;;;;10492780;28;20204;-84
2023/06/19 15:28:06;;;;;;;4.57;3.97;;;29.70;59.20;;;;;;10491479;28;20707;-85
2023/06/19 15:33:08;;;;;;;5.57;5.10;;;29.60;59.40;;;;;;10488799;28;20211;-86
2023/06/19 15:38:10;;;;;;;4.60;4.20;;;29.60;59.80;;;;;;10481977;28;20224;-84
2023/06/19 15:43:14;;;;;;;4.10;3.90;;;29.70;60.00;;;;;;10472248;28;20262;-84
2023/06/19 15:48:16;;;;;;;5.40;5.10;;;29.70;58.80;;;;;;10471186;28;20225;-84
2023/06/19 15:53:18;;;;;;;4.23;3.93;;;29.70;60.00;;;;;;10495117;28;20193;-84
2023/06/19 15:58:22;;;;;;;4.30;4.00;;;29.70;59.50;;;;;;10495888;28;20368;-87
2023/06/19 16:03:24;;;;;;;4.27;3.97;;;29.80;59.70;;;;;;10510528;28;20188;-86
2023/06/19 16:08:26;;;;;;;4.90;4.50;;;29.90;58.50;;;;;;10493216;28;20258;-84
2023/06/19 16:13:30;;;;;;;4.00;3.80;;;29.80;59.00;;;;;;10480344;28;20338;-86
2023/06/19 16:18:32;;;;;;;4.00;3.60;;;29.80;59.50;;;;;;10507526;28;20225;-86
2023/06/19 16:23:35;;;;;;;4.50;4.20;;;29.70;59.50;;;;;;10479463;28;20201;-86
2023/06/19 16:28:39;;;;;;;4.93;4.37;;;29.60;59.60;;;;;;10497560;28;20241;-86
2023/06/19 16:33:41;;;;;;;3.60;3.40;;;29.60;59.50;;;;;;10496994;28;20202;-86
2023/06/19 16:38:43;;;;;;;5.10;4.70;;;29.40;60.00;;;;;;10479292;28;20217;-85
2023/06/19 16:43:47;;;;;;;4.43;4.13;;;29.40;60.80;;;;;;10497764;28;20201;-83
2023/06/19 16:48:49;;;;;;;4.70;4.40;;;29.40;61.70;;;;;;10489028;28;20638;-86
2023/06/19 16:53:51;;;;;;;5.00;4.50;;;29.40;61.90;;;;;;10497160;28;20292;-86
2023/06/19 16:58:54;;;;;;;4.77;4.47;;;29.40;62.80;;;;;;10498143;28;20300;-84
2023/06/19 17:03:57;;;;;;;5.57;5.17;;;29.30;61.90;;;;;;10506528;28;20188;-84
2023/06/19 17:08:59;;;;;;;5.03;4.63;;;29.20;62.40;;;;;;10478062;28;20706;-85
2023/06/19 17:14:02;;;;;;;6.00;5.60;;;29.10;62.90;;;;;;10495511;28;20624;-85
2023/06/19 17:19:05;;;;;;;5.00;4.60;;;29.00;62.90;;;;;;10497238;28;20674;-86
2023/06/19 17:24:07;;;;;;;5.10;4.80;;;28.80;63.20;;;;;;10493270;28;20209;-83
2023/06/19 17:29:11;;;;;;;5.60;5.20;;;28.70;64.90;;;;;;10493643;28;20252;-84
2023/06/19 17:34:13;;;;;;;5.10;4.70;;;28.60;65.80;;;;;;10480438;28;20695;-86
2023/06/19 17:39:15;;;;;;;5.80;5.40;;;28.50;66.60;;;;;;10472912;28;20209;-85
2023/06/19 17:44:25;;;;;;;5.77;5.37;;;28.30;67.20;;;;;;10486604;28;20657;-86
2023/06/19 18:02:00;;;;;;;7.17;6.07;;;27.90;68.80;;;;;;10454409;28;20205;-85
2023/06/19 18:07:47;;;;;;;6.57;5.97;;;27.90;67.50;;;;;;10491526;28;20243;-85
2023/06/19 18:12:58;;;;;;;5.57;5.17;;;27.80;68.50;;;;;;10495332;28;20201;-85
2023/06/19 18:18:01;;;;;;;5.70;5.33;;;27.80;68.50;;;;;;10497433;22;20712;-80
2023/06/19 18:23:05;;;;;;;5.80;5.40;;;27.80;67.80;;;;;;10463287;28;20660;-80
2023/06/19 18:28:07;;;;;;;5.47;5.07;;;27.80;67.60;;;;;;10450744;28;20230;-80
2023/06/19 18:33:10;;;;;;;5.60;4.97;;;27.80;67.60;;;;;;10433140;28;20256;-81
2023/06/19 18:38:13;;;;;;;5.60;5.20;;;27.70;67.00;;;;;;10425292;28;20265;-81
2023/06/19 18:43:15;;;;;;;5.00;4.70;;;27.60;67.30;;;;;;10430370;28;20198;-81
2023/06/19 18:48:19;;;;;;;4.90;4.50;;;27.60;67.20;;;;;;10426100;28;20217;-82
2023/06/19 18:53:22;;;;;;;6.33;5.90;;;27.50;67.10;;;;;;10410354;28;20198;-81
2023/06/19 18:58:24;;;;;;;7.37;6.87;;;27.40;67.60;;;;;;10430334;28;20226;-81
2023/06/19 19:03:28;;;;;;;6.70;6.10;;;27.30;69.10;;;;;;10426685;28;20625;-80
2023/06/19 19:08:30;;;;;;;6.23;5.80;;;27.20;68.80;;;;;;10410469;28;20261;-80
2023/06/19 19:13:32;;;;;;;6.20;5.80;;;27.20;69.40;;;;;;10411466;28;20670;-81
2023/06/19 19:18:36;;;;;;;6.47;6.07;;;27.00;69.70;;;;;;10425782;28;20227;-80
2023/06/19 19:23:38;;;;;;;6.17;5.77;;;26.90;70.20;;;;;;10401627;28;20194;-80
2023/06/19 19:28:40;;;;;;;6.77;6.37;;;26.80;71.10;;;;;;10421384;28;20312;-79
2023/06/19 19:33:44;;;;;;;6.07;5.67;;;26.70;71.40;;;;;;10404123;28;20210;-81
2023/06/19 19:38:46;;;;;;;5.93;5.53;;;26.60;72.20;;;;;;10426506;28;20276;-77
2023/06/19 19:43:51;;;;;;;6.63;6.20;;;26.50;72.20;;;;;;10426409;28;20203;-80
2023/06/19 19:48:54;;;;;;;5.40;5.10;;;26.50;72.10;;;;;;10424162;28;20574;-80
2023/06/19 19:53:57;;;;;;;6.37;5.87;;;26.40;72.90;;;;;;10399054;28;20654;-78
2023/06/19 19:58:59;;;;;;;6.70;6.20;;;26.40;73.00;;;;;;10420870;28;20231;-79
2023/06/19 20:04:02;;;;;;;6.70;6.20;;;26.30;72.80;;;;;;10411370;28;20210;-80
2023/06/19 20:09:04;;;;;;;6.77;6.17;;;26.20;73.70;;;;;;10429734;28;20248;-79
2023/06/19 20:14:07;;;;;;;7.00;6.30;;;26.10;74.00;;;;;;10425301;28;20298;-80
2023/06/19 20:19:10;;;;;;;6.70;6.10;;;26.00;74.60;;;;;;10428943;28;20226;-79
2023/06/19 20:24:12;;;;;;;6.97;6.47;;;25.80;75.00;;;;;;10409056;28;20225;-79
2023/06/19 20:29:15;;;;;;;7.03;6.43;;;25.70;75.60;;;;;;10429554;28;20215;-78
2023/06/19 20:34:18;;;;;;;5.87;5.53;;;25.60;75.90;;;;;;10428855;28;20203;-80
2023/06/19 20:39:22;;;;;;;7.20;6.70;;;25.50;76.30;;;;;;10429730;28;20237;-80
2023/06/19 20:44:24;;;;;;;7.13;6.63;;;25.40;76.70;;;;;;10430929;28;20202;-78
2023/06/19 20:49:28;;;;;;;6.33;5.93;;;25.30;77.30;;;;;;10440685;28;20300;-80
2023/06/19 20:54:30;;;;;;;6.70;5.97;;;25.20;77.80;;;;;;10433087;28;20377;-80
2023/06/19 20:59:33;;;;;;;7.40;6.70;;;25.20;78.10;;;;;;10436091;28;20222;-80
2023/06/19 21:04:36;;;;;;;6.40;6.00;;;25.10;79.10;;;;;;10423634;28;20232;-79
2023/06/19 21:09:39;;;;;;;7.57;6.97;;;25.00;78.70;;;;;;10427914;28;20212;-80
2023/06/19 21:14:41;;;;;;;6.27;5.87;;;25.00;79.20;;;;;;10422489;28;20256;-80
2023/06/19 21:19:45;;;;;;;7.27;6.77;;;24.90;79.40;;;;;;10434204;28;20305;-81
2023/06/19 21:24:47;;;;;;;7.50;6.90;;;24.90;79.90;;;;;;10407498;28;20202;-79
2023/06/19 21:29:49;;;;;;;6.47;5.93;;;24.90;80.20;;;;;;10435889;28;20218;-79
2023/06/19 21:34:53;;;;;;;7.37;6.67;;;24.80;80.50;;;;;;10436784;28;20392;-79
2023/06/19 21:39:55;;;;;;;7.00;6.50;;;24.70;80.70;;;;;;10435146;28;20272;-79
2023/06/19 21:44:57;;;;;;;7.10;6.50;;;24.70;81.10;;;;;;10429982;28;20249;-79
2023/06/19 21:50:00;;;;;;;7.20;6.67;;;24.70;81.40;;;;;;10424731;28;20218;-78
2023/06/19 21:55:03;;;;;;;7.27;6.77;;;24.60;81.70;;;;;;10421894;28;20231;-79
2023/06/19 22:00:08;;;;;;;7.20;6.60;;;24.60;81.70;;;;;;10436102;28;20257;-80
2023/06/19 22:05:13;;;;;;;6.30;5.80;;;24.60;81.80;;;;;;10407398;28;20285;-79
2023/06/19 22:10:15;;;;;;;6.80;6.30;;;24.50;81.90;;;;;;10422859;28;20484;-79
2023/06/19 22:15:18;;;;;;;7.10;6.50;;;24.50;81.80;;;;;;10431034;28;20693;-79
2023/06/19 22:20:21;;;;;;;7.00;6.30;;;24.50;82.00;;;;;;10403700;28;20237;-78
2023/06/19 22:25:23;;;;;;;6.40;5.90;;;24.50;82.10;;;;;;10423423;28;20199;-80
2023/06/19 22:30:26;;;;;;;6.60;6.10;;;24.50;82.20;;;;;;10422539;28;20344;-80
2023/06/19 22:35:30;;;;;;;6.30;5.87;;;24.50;82.10;;;;;;10422317;28;20249;-79
2023/06/19 22:40:32;;;;;;;7.20;6.63;;;24.40;82.40;;;;;;10405944;28;20605;-78
2023/06/19 22:45:34;;;;;;;6.50;6.00;;;24.40;82.30;;;;;;10402998;28;20213;-78
2023/06/19 22:50:38;;;;;;;7.00;6.40;;;24.40;82.30;;;;;;10420093;28;20245;-78
2023/06/19 22:55:40;;;;;;;7.73;7.13;;;24.40;82.60;;;;;;10402758;28;20233;-80
2023/06/19 23:00:42;;;;;;;6.97;6.37;;;24.30;82.70;;;;;;10404976;28;20564;-80
2023/06/19 23:05:45;;;;;;;6.70;6.17;;;24.30;82.90;;;;;;10423766;28;20194;-80
2023/06/19 23:10:47;;;;;;;6.60;6.10;;;24.30;83.00;;;;;;10421427;28;20345;-78
2023/06/19 23:15:50;;;;;;;7.10;6.50;;;24.20;83.00;;;;;;10428064;28;20231;-79
2023/06/19 23:20:53;;;;;;;7.70;5.97;;;24.20;83.40;;;;;;10408649;28;20226;-78
2023/06/19 23:25:55;;;;;;;6.77;6.27;;;24.20;84.30;;;;;;10421215;28;20750;-79
2023/06/19 23:30:58;;;;;;;6.80;6.30;;;24.10;83.70;;;;;;10425917;28;20210;-79
2023/06/19 23:36:01;;;;;;;7.70;7.10;;;24.00;84.10;;;;;;10425672;28;20222;-78
2023/06/19 23:41:03;;;;;;;7.13;6.63;;;24.00;84.30;;;;;;10393359;28;20198;-80
2023/06/19 23:46:06;;;;;;;7.00;6.40;;;24.00;84.60;;;;;;10430723;28;20198;-80
2023/06/19 23:51:10;;;;;;;6.70;6.20;;;24.00;84.50;;;;;;10430398;28;20199;-80
2023/06/19 23:56:12;;;;;;;7.40;6.70;;;24.00;84.80;;;;;;10419182;28;20264;-80
